Time;durP1;ratioP1;P1;durP2;ratioP2;P2;SDS_P1;SDS_P2;PMS_P1;PMS_P2;Temp;Humidity;BMP_temperature;BMP_pressure;BME280_temperature;BME280_humidity;BME280_pressure;Samples;Min_cycle;Max_cycle;Signal;HPM_P1;HPM_P2
2022/07/01 00:02:14;;;;;;;;;;;;;;;29.33;41.81;94264.84;4984452;28;6989;-63
2022/07/01 00:04:40;;;;;;;;;;;;;;;29.32;41.45;94280.72;5015527;28;6973;-63
2022/07/01 00:07:06;;;;;;;;;;;;;;;29.32;41.64;94283.50;5020971;28;9465;-63
2022/07/01 00:09:32;;;;;;;;;;;;;;;29.32;42.12;94274.47;5009448;28;7174;-63
2022/07/01 00:12:03;;;;;;;;;;;;;;;29.32;41.31;94266.16;5012109;28;8268;-63
2022/07/01 00:14:31;;;;;;;;;;;;;;;29.31;42.28;94268.16;5011559;28;6997;-63
2022/07/01 00:16:57;;;;;;;;;;;;;;;29.32;41.48;94266.16;5034563;28;7292;-63
2022/07/01 00:19:27;;;;;;;;;;;;;;;29.29;41.33;94251.34;5022505;28;7348;-63
2022/07/01 00:21:53;;;;;;;;;;;;;;;29.30;42.12;94244.50;5019122;28;6998;-63
2022/07/01 00:24:21;;;;;;;;;;;;;;;29.30;41.70;94252.81;5026848;28;7016;-63
2022/07/01 00:26:52;;;;;;;;;;;;;;;29.30;41.98;94252.81;5019789;28;8048;-62
2022/07/01 00:29:21;;;;;;;;;;;;;;;29.29;42.13;94242.28;5019488;28;7309;-62
2022/07/01 00:31:52;;;;;;;;;;;;;;;29.30;41.78;94235.44;5017472;28;9357;-62
2022/07/01 00:34:22;;;;;;;;;;;;;;;29.28;42.23;94238.00;5016191;28;7027;-62
2022/07/01 00:36:50;;;;;;;;;;;;;;;29.28;41.90;94247.06;5026152;28;7448;-62
2022/07/01 00:39:16;;;;;;;;;;;;;;;29.28;41.75;94258.16;5030092;28;9523;-63
2022/07/01 00:41:43;;;;;;;;;;;;;;;29.28;42.04;94262.94;5025764;28;7475;-62
2022/07/01 00:44:21;;;;;;;;;;;;;;;29.27;41.72;94259.44;5011789;28;9096;-62
2022/07/01 00:46:51;;;;;;;;;;;;;;;29.26;42.03;94257.19;5010108;28;7388;-62
2022/07/01 00:49:23;;;;;;;;;;;;;;;29.26;41.83;94262.75;5013830;28;7256;-62
2022/07/01 00:51:50;;;;;;;;;;;;;;;29.25;41.95;94264.78;5018903;28;7232;-62
2022/07/01 00:54:37;;;;;;;;;;;;;;;29.23;41.43;94253.47;5039256;28;6869;-62
2022/07/01 00:57:08;;;;;;;;;;;;;;;29.21;42.38;94258.81;5027801;28;7844;-63
2022/07/01 00:59:37;;;;;;;;;;;;;;;29.19;41.76;94249.56;5039917;28;7827;-63
2022/07/01 01:02:05;;;;;;;;;;;;;;;29.19;42.06;94247.53;5026840;28;7086;-63
2022/07/01 01:04:32;;;;;;;;;;;;;;;29.16;41.91;94242.31;5018261;28;7321;-63
2022/07/01 01:07:07;;;;;;;;;;;;;;;29.18;41.96;94251.59;5037851;28;9055;-63
2022/07/01 01:09:40;;;;;;;;;;;;;;;29.17;41.78;94250.09;5032904;28;9531;-63
2022/07/01 01:12:15;;;;;;;;;;;;;;;29.17;42.12;94246.59;5018369;28;7267;-62
2022/07/01 01:14:46;;;;;;;;;;;;;;;29.16;42.01;94248.63;5016607;28;9031;-62
2022/07/01 01:17:43;;;;;;;;;;;;;;;29.16;42.28;94248.63;5008258;28;7074;-63
2022/07/01 01:20:15;;;;;;;;;;;;;;;29.16;41.39;94248.63;4989986;28;9344;-63
2022/07/01 01:22:44;;;;;;;;;;;;;;;29.16;41.64;94242.31;4970494;28;7245;-63
2022/07/01 01:25:19;;;;;;;;;;;;;;;29.14;42.01;94240.09;4975961;28;9046;-63
2022/07/01 01:27:47;;;;;;;;;;;;;;;29.15;41.69;94249.13;4987394;28;7115;-62
2022/07/01 01:30:13;;;;;;;;;;;;;;;29.13;41.94;94249.66;4980535;28;6987;-63
2022/07/01 01:32:41;;;;;;;;;;;;;;;29.13;41.31;94254.44;4979468;28;6941;-62
2022/07/01 01:35:10;;;;;;;;;;;;;;;29.12;42.30;94259.25;4966038;28;7694;-63
2022/07/01 01:37:39;;;;;;;;;;;;;;;29.09;42.24;94258.31;4977090;28;7760;-63
2022/07/01 01:40:08;;;;;;;;;;;;;;;29.11;41.46;94246.69;4982161;28;7658;-63
2022/07/01 01:42:36;;;;;;;;;;;;;;;29.09;41.72;94247.22;4982276;28;9285;-63
2022/07/01 01:45:06;;;;;;;;;;;;;;;29.08;41.64;94242.97;4961785;28;7420;-63
2022/07/01 01:47:43;;;;;;;;;;;;;;;29.07;42.10;94240.75;4961849;28;7211;-62
2022/07/01 01:50:22;;;;;;;;;;;;;;;29.08;42.43;94244.97;4969832;28;9104;-63
2022/07/01 01:52:58;;;;;;;;;;;;;;;29.07;42.00;94244.25;4980444;28;8747;-63
2022/07/01 01:55:26;;;;;;;;;;;;;;;29.05;41.58;94232.97;4973233;28;7137;-63
2022/07/01 01:57:52;;;;;;;;;;;;;;;29.05;41.59;94238.50;5013265;28;9078;-62
2022/07/01 02:00:20;;;;;;;;;;;;;;;29.05;42.03;94229.47;5013479;28;8938;-63
2022/07/01 02:02:48;;;;;;;;;;;;;;;29.03;41.29;94235.53;5027541;28;7504;-63
2022/07/01 02:05:16;;;;;;;;;;;;;;;29.05;42.26;94254.38;5018429;28;8007;-63
2022/07/01 02:07:48;;;;;;;;;;;;;;;29.02;41.78;94275.56;5029260;28;7016;-63
2022/07/01 02:10:26;;;;;;;;;;;;;;;29.05;41.39;94299.44;5015837;28;7002;-63
2022/07/01 02:12:54;;;;;;;;;;;;;;;29.04;41.80;94300.72;5014118;28;7409;-62
2022/07/01 02:15:21;;;;;;;;;;;;;;;29.02;41.30;94311.56;5015714;28;9045;-62
2022/07/01 02:17:51;;;;;;;;;;;;;;;29.03;41.56;94326.19;5015405;28;7505;-62
2022/07/01 02:20:17;;;;;;;;;;;;;;;29.03;41.41;94323.41;5021352;28;7236;-62
2022/07/01 02:22:48;;;;;;;;;;;;;;;29.02;41.89;94322.66;5024120;28;6948;-63
2022/07/01 02:25:23;;;;;;;;;;;;;;;29.00;41.44;94325.22;5018114;28;6860;-62
2022/07/01 02:27:56;;;;;;;;;;;;;;;28.97;41.58;94331.81;5014795;28;7284;-63
2022/07/01 02:30:22;;;;;;;;;;;;;;;28.97;41.63;94331.81;5014761;28;7066;-63
2022/07/01 02:32:49;;;;;;;;;;;;;;;28.98;41.67;94343.63;5029689;28;8727;-62
2022/07/01 02:35:18;;;;;;;;;;;;;;;28.97;41.28;94358.78;5027740;28;7326;-62
2022/07/01 02:37:45;;;;;;;;;;;;;;;28.97;41.70;94345.66;5017053;28;7593;-62
2022/07/01 02:40:13;;;;;;;;;;;;;;;28.96;41.92;94333.09;5017510;28;8996;-62
2022/07/01 02:42:40;;;;;;;;;;;;;;;28.94;41.53;94332.91;5026149;28;6979;-61
2022/07/01 02:45:16;;;;;;;;;;;;;;;28.93;41.68;94342.47;5011951;28;7009;-63
2022/07/01 02:47:49;;;;;;;;;;;;;;;28.93;41.72;94350.78;5014592;28;6992;-63
2022/07/01 02:50:24;;;;;;;;;;;;;;;28.92;41.53;94357.59;5020281;28;6989;-63
2022/07/01 02:53:02;;;;;;;;;;;;;;;28.92;41.62;94371.44;5018738;28;7936;-63
2022/07/01 02:55:38;;;;;;;;;;;;;;;28.92;41.49;94368.69;5015729;28;7308;-63
2022/07/01 02:58:07;;;;;;;;;;;;;;;28.93;41.65;94372.94;5019103;28;6971;-63
2022/07/01 03:00:32;;;;;;;;;;;;;;;28.93;41.19;94384.00;5014988;28;9520;-63
2022/07/01 03:02:58;;;;;;;;;;;;;;;28.95;41.79;94378.69;5024103;28;9575;-63
2022/07/01 03:05:24;;;;;;;;;;;;;;;28.94;41.59;94388.28;5018265;28;7038;-63
2022/07/01 03:07:50;;;;;;;;;;;;;;;28.94;41.04;94393.81;5018863;28;7711;-63
2022/07/01 03:10:23;;;;;;;;;;;;;;;28.94;40.81;94404.88;5026313;28;7038;-63
2022/07/01 03:12:53;;;;;;;;;;;;;;;28.94;41.20;94417.97;5017020;28;8843;-63
2022/07/01 03:15:32;;;;;;;;;;;;;;;28.94;41.13;94429.06;5023000;28;7324;-63
2022/07/01 03:18:12;;;;;;;;;;;;;;;28.94;41.74;94434.59;5028039;28;7275;-63
2022/07/01 03:20:51;;;;;;;;;;;;;;;28.94;41.26;94451.97;5028479;28;7297;-63
2022/07/01 03:23:25;;;;;;;;;;;;;;;28.90;41.47;94465.38;5024603;28;7190;-63
2022/07/01 03:25:52;;;;;;;;;;;;;;;28.90;41.03;94470.16;5011112;28;7126;-63
2022/07/01 03:28:18;;;;;;;;;;;;;;;28.87;40.99;94454.59;5025076;28;6953;-63
2022/07/01 03:30:53;;;;;;;;;;;;;;;28.86;41.02;94458.66;5018337;28;7216;-63
2022/07/01 03:33:35;;;;;;;;;;;;;;;28.86;41.11;94456.63;5010797;28;7505;-63
2022/07/01 03:36:03;;;;;;;;;;;;;;;28.87;40.41;94438.00;5022585;28;7255;-63
2022/07/01 03:38:30;;;;;;;;;;;;;;;28.85;41.19;94441.31;5010731;28;9022;-63
2022/07/01 03:41:01;;;;;;;;;;;;;;;28.84;41.19;94445.34;5024427;28;7085;-63
2022/07/01 03:43:27;;;;;;;;;;;;;;;28.88;41.62;94433.97;5013376;28;7308;-63
2022/07/01 03:45:54;;;;;;;;;;;;;;;28.88;41.31;94409.78;5026511;28;9179;-63
2022/07/01 03:48:20;;;;;;;;;;;;;;;28.87;40.89;94444.28;5024873;28;7147;-63
2022/07/01 03:50:47;;;;;;;;;;;;;;;28.86;40.96;94448.31;5012347;28;7240;-63
2022/07/01 03:55:57;;;;;;;;;;;;;;;28.84;41.27;94459.19;5018114;28;7419;-63
2022/07/01 03:58:25;;;;;;;;;;;;;;;28.83;41.21;94459.72;5019830;28;9155;-63
2022/07/01 04:00:51;;;;;;;;;;;;;;;28.83;40.75;94463.25;5016512;28;7279;-63
2022/07/01 04:03:17;;;;;;;;;;;;;;;28.84;40.89;94466.75;5015100;28;9067;-63
2022/07/01 04:05:46;;;;;;;;;;;;;;;28.82;40.96;94470.03;5015246;28;6947;-63
2022/07/01 04:08:14;;;;;;;;;;;;;;;28.82;41.20;94472.81;5017347;28;9155;-63
2022/07/01 04:10:42;;;;;;;;;;;;;;;28.82;40.84;94481.13;5022600;28;7514;-63
2022/07/01 04:13:13;;;;;;;;;;;;;;;28.80;40.91;94478.13;5014157;28;9450;-63
2022/07/01 04:15:41;;;;;;;;;;;;;;;28.81;41.38;94476.88;5013833;28;9132;-63
2022/07/01 04:18:08;;;;;;;;;;;;;;;28.81;41.35;94476.88;5011870;28;7252;-63
2022/07/01 04:20:36;;;;;;;;;;;;;;;28.78;40.74;94466.09;5010497;28;7291;-63
2022/07/01 04:23:04;;;;;;;;;;;;;;;28.80;41.23;94474.59;5009751;28;7243;-62
2022/07/01 04:25:30;;;;;;;;;;;;;;;28.80;41.37;94477.38;5016393;28;7020;-62
2022/07/01 04:28:00;;;;;;;;;;;;;;;28.80;41.11;94478.13;5021414;28;7114;-63
2022/07/01 04:30:35;;;;;;;;;;;;;;;28.78;40.93;94466.84;5018362;28;9103;-63
2022/07/01 04:33:31;;;;;;;;;;;;;;;28.78;40.85;94455.78;5018332;28;7212;-62
2022/07/01 04:36:00;;;;;;;;;;;;;;;28.78;41.28;94453.00;4991433;28;9083;-62
2022/07/01 04:38:37;;;;;;;;;;;;;;;28.78;40.82;94453.00;4995190;28;7407;-63
2022/07/01 04:43:56;;;;;;;;;;;;;;;28.76;41.25;94447.25;4998063;28;7043;-62
2022/07/01 04:47:06;;;;;;;;;;;;;;;28.76;40.71;94449.25;4992324;28;6946;-62
2022/07/01 04:49:42;;;;;;;;;;;;;;;28.74;41.30;94455.34;4946995;28;7362;-62
2022/07/01 04:52:10;;;;;;;;;;;;;;;28.74;41.15;94449.81;4933534;28;7398;-63
2022/07/01 04:54:46;;;;;;;;;;;;;;;28.76;40.69;94460.34;4947822;28;8862;-63
2022/07/01 04:57:12;;;;;;;;;;;;;;;28.74;40.31;94462.91;4925275;28;7281;-63
2022/07/01 04:59:38;;;;;;;;;;;;;;;28.72;40.68;94459.91;4934939;28;7045;-63
2022/07/01 05:02:04;;;;;;;;;;;;;;;28.71;40.02;94461.94;4945396;28;9117;-62
2022/07/01 05:04:32;;;;;;;;;;;;;;;28.71;40.34;94450.13;4923132;28;7191;-63
2022/07/01 05:07:02;;;;;;;;;;;;;;;28.71;40.15;94450.84;4922397;29;7191;-63
2022/07/01 05:09:28;;;;;;;;;;;;;;;28.70;40.72;94443.09;4926455;28;9083;-62
2022/07/01 05:11:55;;;;;;;;;;;;;;;28.68;40.82;94437.34;4929702;28;9101;-62
2022/07/01 05:14:21;;;;;;;;;;;;;;;28.69;40.20;94455.44;4924314;28;9341;-62
2022/07/01 05:16:49;;;;;;;;;;;;;;;28.69;39.93;94464.47;4944458;28;7214;-63
2022/07/01 05:22:02;;;;;;;;;;;;;;;28.70;40.34;94487.38;4930551;28;7127;-62
2022/07/01 05:24:34;;;;;;;;;;;;;;;28.70;40.44;94484.59;4938899;28;8447;-62
2022/07/01 05:27:01;;;;;;;;;;;;;;;28.68;40.31;94476.84;4988106;28;7319;-62
2022/07/01 05:29:27;;;;;;;;;;;;;;;28.70;40.43;94481.84;5012078;28;9158;-62
2022/07/01 05:31:54;;;;;;;;;;;;;;;28.71;40.53;94488.88;5016628;28;7174;-63
2022/07/01 05:34:20;;;;;;;;;;;;;;;28.68;40.32;94485.16;5018286;28;9368;-62
2022/07/01 05:36:53;;;;;;;;;;;;;;;28.69;40.31;94489.41;5018558;28;7059;-62
2022/07/01 05:39:21;;;;;;;;;;;;;;;28.70;40.18;94488.13;5012362;28;9097;-62
2022/07/01 05:41:57;;;;;;;;;;;;;;;28.71;40.82;94489.59;5026174;28;8616;-62
2022/07/01 05:44:26;;;;;;;;;;;;;;;28.72;40.35;94491.13;4998649;28;7908;-62
2022/07/01 05:46:56;;;;;;;;;;;;;;;28.73;40.56;94495.34;5025148;28;9245;-62
2022/07/01 05:49:29;;;;;;;;;;;;;;;28.71;40.33;94486.84;5022449;28;9416;-62
2022/07/01 05:52:26;;;;;;;;;;;;;;;28.70;40.03;94485.38;5020055;28;7189;-62
2022/07/01 05:55:04;;;;;;;;;;;;;;;28.68;40.21;94482.38;4995424;28;7002;-62
2022/07/01 05:57:38;;;;;;;;;;;;;;;28.69;40.77;94480.34;4999198;28;6973;-62
2022/07/01 06:00:05;;;;;;;;;;;;;;;28.66;40.31;94484.19;4989143;28;7259;-62
2022/07/01 06:02:34;;;;;;;;;;;;;;;28.66;40.74;94479.41;5000500;28;7014;-62
2022/07/01 06:05:02;;;;;;;;;;;;;;;28.65;40.39;94483.44;4990624;28;7238;-63
2022/07/01 06:07:30;;;;;;;;;;;;;;;28.66;40.41;94482.16;4992067;28;7068;-62
2022/07/01 06:10:00;;;;;;;;;;;;;;;28.69;40.16;94481.09;4996789;28;6976;-62
2022/07/01 06:12:30;;;;;;;;;;;;;;;28.69;40.41;94477.56;4993103;28;7291;-62
2022/07/01 06:15:07;;;;;;;;;;;;;;;28.68;40.46;94482.38;4982663;28;7226;-63
2022/07/01 06:17:43;;;;;;;;;;;;;;;28.70;41.02;94479.06;5004629;28;9118;-63
2022/07/01 06:20:18;;;;;;;;;;;;;;;28.69;40.91;94483.09;4985589;28;9403;-63
2022/07/01 06:22:45;;;;;;;;;;;;;;;28.71;41.10;94486.13;4987084;28;7833;-62
2022/07/01 06:25:45;;;;;;;;;;;;;;;28.71;40.98;94491.66;4992999;28;7244;-63
2022/07/01 06:28:36;;;;;;;;;;;;;;;28.71;41.01;94492.38;4933599;28;9363;-63
2022/07/01 06:31:20;;;;;;;;;;;;;;;28.69;41.26;94483.84;4929467;28;7567;-63
2022/07/01 06:33:46;;;;;;;;;;;;;;;28.69;41.41;94489.41;4916569;29;7632;-63
2022/07/01 06:36:21;;;;;;;;;;;;;;;28.70;40.80;94488.13;4929855;29;7238;-63
2022/07/01 06:38:52;;;;;;;;;;;;;;;28.71;41.44;94478.53;4923592;28;6995;-63
2022/07/01 06:41:35;;;;;;;;;;;;;;;28.68;41.22;94465.78;4935342;28;8750;-63
2022/07/01 06:44:03;;;;;;;;;;;;;;;28.70;41.35;94460.44;4926340;28;9149;-63
2022/07/01 06:46:34;;;;;;;;;;;;;;;28.71;41.03;94467.47;4938633;28;7265;-63
2022/07/01 06:49:03;;;;;;;;;;;;;;;28.70;40.95;94471.53;4940512;28;9035;-63
2022/07/01 06:51:30;;;;;;;;;;;;;;;28.70;41.13;94462.47;4946399;28;7258;-63
2022/07/01 06:53:56;;;;;;;;;;;;;;;28.70;41.48;94440.31;4932644;28;6999;-63
2022/07/01 06:56:35;;;;;;;;;;;;;;;28.70;41.44;94440.31;4933991;28;7239;-62
2022/07/01 06:59:04;;;;;;;;;;;;;;;28.68;41.52;94448.41;4939936;28;6977;-62
2022/07/01 07:01:30;;;;;;;;;;;;;;;28.67;41.46;94441.38;4928754;28;7402;-63
2022/07/01 07:03:56;;;;;;;;;;;;;;;28.68;41.14;94456.72;4986234;28;9205;-63
2022/07/01 07:06:22;;;;;;;;;;;;;;;28.66;41.44;94459.28;5017279;28;9038;-63
2022/07/01 07:08:49;;;;;;;;;;;;;;;28.67;41.43;94455.22;5020899;28;7278;-63
2022/07/01 07:11:19;;;;;;;;;;;;;;;28.68;41.05;94463.00;5018288;28;7971;-63
2022/07/01 07:13:49;;;;;;;;;;;;;;;28.71;41.57;94452.91;5014204;28;9478;-63
2022/07/01 07:16:20;;;;;;;;;;;;;;;28.71;41.37;94452.91;5016418;28;7543;-63
2022/07/01 07:18:51;;;;;;;;;;;;;;;28.74;41.23;94449.81;5011786;28;7264;-62
2022/07/01 07:21:17;;;;;;;;;;;;;;;28.75;41.29;94458.88;5012962;28;7849;-63
2022/07/01 07:23:48;;;;;;;;;;;;;;;28.74;41.33;94458.13;5024144;28;7314;-63
2022/07/01 07:26:27;;;;;;;;;;;;;;;28.74;41.73;94480.25;5020729;28;9187;-63
2022/07/01 07:29:03;;;;;;;;;;;;;;;28.75;41.33;94472.72;5017259;28;8766;-63
2022/07/01 07:31:32;;;;;;;;;;;;;;;28.76;41.42;94480.47;5017411;28;7270;-63
2022/07/01 07:34:07;;;;;;;;;;;;;;;28.75;41.45;94481.00;5015878;28;7724;-63
2022/07/01 07:36:33;;;;;;;;;;;;;;;28.74;41.47;94485.78;5028623;28;7652;-63
2022/07/01 07:39:17;;;;;;;;;;;;;;;28.75;41.27;94469.94;5013065;28;9051;-63
2022/07/01 07:41:50;;;;;;;;;;;;;;;28.73;41.28;94466.94;5016938;28;7365;-62
2022/07/01 07:44:19;;;;;;;;;;;;;;;28.74;40.90;94473.97;5018202;28;8794;-63
2022/07/01 07:46:53;;;;;;;;;;;;;;;28.73;41.06;94484.28;5021535;28;7216;-63
2022/07/01 07:49:20;;;;;;;;;;;;;;;28.71;40.88;94475.78;5018442;28;9034;-63
2022/07/01 07:51:46;;;;;;;;;;;;;;;28.71;40.90;94475.03;5028231;28;9083;-63
2022/07/01 07:54:13;;;;;;;;;;;;;;;28.69;41.10;94475.56;5012993;28;8726;-62
2022/07/01 07:56:39;;;;;;;;;;;;;;;28.69;41.17;94464.47;5020823;28;9480;-62
2022/07/01 07:59:08;;;;;;;;;;;;;;;28.71;40.57;94464.69;5015182;28;7580;-63
2022/07/01 08:01:34;;;;;;;;;;;;;;;28.69;40.83;94469.25;5025897;28;7290;-63
2022/07/01 08:04:00;;;;;;;;;;;;;;;28.69;40.89;94477.56;5017162;28;7259;-63
2022/07/01 08:06:27;;;;;;;;;;;;;;;28.68;40.67;94478.84;5010799;28;9061;-63
2022/07/01 08:08:56;;;;;;;;;;;;;;;28.66;40.31;94473.88;5022489;28;7094;-64
2022/07/01 08:11:21;;;;;;;;;;;;;;;28.65;40.47;94471.59;5017259;28;7610;-64
2022/07/01 08:13:51;;;;;;;;;;;;;;;28.65;40.52;94471.59;5014279;28;7201;-63
2022/07/01 08:16:17;;;;;;;;;;;;;;;28.63;40.46;94463.84;5017700;28;7074;-64
2022/07/01 08:18:45;;;;;;;;;;;;;;;28.62;40.26;94467.16;5018613;28;7323;-64
2022/07/01 08:21:15;;;;;;;;;;;;;;;28.64;40.36;94462.56;5016229;28;7232;-63
2022/07/01 08:23:49;;;;;;;;;;;;;;;28.64;40.65;94472.91;5010035;28;8824;-62
2022/07/01 08:26:17;;;;;;;;;;;;;;;28.66;40.71;94473.09;5022868;28;7219;-63
2022/07/01 08:29:03;;;;;;;;;;;;;;;28.65;40.84;94479.91;4999598;28;7553;-63
2022/07/01 08:31:32;;;;;;;;;;;;;;;28.64;40.78;94479.19;5017147;28;7079;-63
2022/07/01 08:33:58;;;;;;;;;;;;;;;28.63;40.28;94485.97;5022082;28;7539;-63
2022/07/01 08:36:24;;;;;;;;;;;;;;;28.64;40.60;94486.72;5018535;28;7102;-62
2022/07/01 08:38:55;;;;;;;;;;;;;;;28.63;40.91;94496.28;5017392;28;7261;-63
2022/07/01 08:41:24;;;;;;;;;;;;;;;28.62;40.18;94490.03;5019935;28;7225;-63
2022/07/01 08:44:20;;;;;;;;;;;;;;;28.62;40.89;94503.13;5016223;28;7085;-63
2022/07/01 08:46:48;;;;;;;;;;;;;;;28.62;40.77;94508.66;4978164;28;9282;-63
2022/07/01 08:49:23;;;;;;;;;;;;;;;28.61;40.67;94505.13;4984689;28;7213;-62
2022/07/01 08:51:55;;;;;;;;;;;;;;;28.59;40.45;94493.84;4985950;28;7145;-62
2022/07/01 08:54:32;;;;;;;;;;;;;;;28.60;40.97;94498.09;4988640;28;7394;-63
2022/07/01 08:57:03;;;;;;;;;;;;;;;28.58;40.53;94508.22;5001310;28;7199;-63
2022/07/01 08:59:30;;;;;;;;;;;;;;;28.60;40.70;94503.63;4982462;28;7250;-63
2022/07/01 09:02:04;;;;;;;;;;;;;;;28.61;40.56;94502.38;4979711;28;9503;-63
2022/07/01 09:04:32;;;;;;;;;;;;;;;28.61;41.01;94509.91;4981158;28;7164;-62
2022/07/01 09:07:07;;;;;;;;;;;;;;;28.60;41.11;94503.63;4980777;28;7669;-63
2022/07/01 09:09:36;;;;;;;;;;;;;;;28.47;41.01;94506.31;4985519;28;7344;-63
2022/07/01 09:12:04;;;;;;;;;;;;;;;28.51;40.94;94504.03;4992028;28;8044;-63
2022/07/01 09:14:36;;;;;;;;;;;;;;;28.62;40.87;94503.88;4978747;28;7126;-62
2022/07/01 09:17:05;;;;;;;;;;;;;;;28.70;40.90;94501.22;4979856;28;7750;-62
2022/07/01 09:19:36;;;;;;;;;;;;;;;28.73;41.03;94509.19;4988565;28;7220;-62
2022/07/01 09:22:18;;;;;;;;;;;;;;;28.75;40.62;94522.53;4990901;28;7420;-62
2022/07/01 09:25:00;;;;;;;;;;;;;;;28.74;40.62;94526.56;5034096;28;9109;-62
2022/07/01 09:27:26;;;;;;;;;;;;;;;28.71;40.42;94536.66;5025830;28;7423;-62
2022/07/01 09:29:52;;;;;;;;;;;;;;;28.70;40.54;94539.97;5020874;28;9138;-62
2022/07/01 09:32:22;;;;;;;;;;;;;;;28.66;40.49;94550.59;5030687;28;6988;-62
2022/07/01 09:34:57;;;;;;;;;;;;;;;28.62;40.64;94556.47;5024572;28;8064;-62
2022/07/01 09:37:57;;;;;;;;;;;;;;;28.57;41.20;94548.19;5017095;28;8539;-61
2022/07/01 09:40:55;;;;;;;;;;;;;;;28.54;41.39;94541.69;5014995;28;7394;-63
2022/07/01 09:43:33;;;;;;;;;;;;;;;28.56;41.04;94544.69;5015170;28;7691;-64
2022/07/01 09:46:21;;;;;;;;;;;;;;;28.56;41.13;94541.91;5025053;28;6993;-64
2022/07/01 09:48:49;;;;;;;;;;;;;;;28.55;41.11;94540.44;5018871;28;9097;-63
2022/07/01 09:51:16;;;;;;;;;;;;;;;28.56;40.98;94546.72;5018596;28;7240;-63
2022/07/01 09:53:44;;;;;;;;;;;;;;;28.54;40.63;94544.47;5019510;28;8911;-63
2022/07/01 09:56:16;;;;;;;;;;;;;;;28.53;40.99;94548.50;5022515;28;7066;-63
2022/07/01 09:58:49;;;;;;;;;;;;;;;28.54;41.05;94549.25;5018005;28;7452;-63
2022/07/01 10:01:17;;;;;;;;;;;;;;;28.54;41.34;94550.00;5016581;28;7394;-63
2022/07/01 10:03:43;;;;;;;;;;;;;;;28.54;41.29;94547.22;5036233;28;7230;-63
2022/07/01 10:06:56;;;;;;;;;;;;;;;28.55;41.13;94551.50;5017201;28;7003;-64
2022/07/01 10:10:07;;;;;;;;;;;;;;;28.54;41.00;94561.06;4971861;28;7268;-64
2022/07/01 10:13:00;;;;;;;;;;;;;;;28.53;41.05;94570.66;4976173;28;6996;-63
2022/07/01 10:15:27;;;;;;;;;;;;;;;28.52;40.79;94568.41;4982192;28;8769;-63
2022/07/01 10:17:53;;;;;;;;;;;;;;;28.52;41.01;94573.94;4982889;28;8896;-62
2022/07/01 10:20:30;;;;;;;;;;;;;;;28.50;41.00;94577.22;4967459;28;9422;-61
2022/07/01 10:23:09;;;;;;;;;;;;;;;28.51;41.01;94586.28;4982880;28;7005;-61
2022/07/01 10:26:02;;;;;;;;;;;;;;;28.50;41.07;94591.06;4971653;28;7354;-61
2022/07/01 10:28:47;;;;;;;;;;;;;;;28.50;41.07;94591.06;4948250;28;9366;-62
2022/07/01 10:31:37;;;;;;;;;;;;;;;28.47;41.33;94594.88;4945325;28;7013;-61
2022/07/01 10:34:08;;;;;;;;;;;;;;;28.43;40.95;94594.44;4928849;29;9316;-62
2022/07/01 10:36:45;;;;;;;;;;;;;;;28.41;40.99;94604.53;4941136;28;6907;-62
2022/07/01 10:40:00;;;;;;;;;;;;;;;28.44;41.23;94609.03;4946072;28;7251;-63
2022/07/01 10:42:59;;;;;;;;;;;;;;;28.47;41.30;94596.91;4892606;29;9141;-62
2022/07/01 10:45:55;;;;;;;;;;;;;;;28.49;41.32;94608.19;4876387;29;7242;-62
2022/07/01 10:48:30;;;;;;;;;;;;;;;28.48;41.26;94610.22;4892152;29;6999;-62
2022/07/01 10:51:04;;;;;;;;;;;;;;;28.49;41.34;94614.50;4890364;29;7229;-62
2022/07/01 10:53:50;;;;;;;;;;;;;;;28.49;41.36;94613.75;4891125;29;7311;-62
2022/07/01 10:56:39;;;;;;;;;;;;;;;28.47;41.52;94625.31;4876488;29;7312;-62
2022/07/01 10:59:25;;;;;;;;;;;;;;;28.49;41.97;94628.31;4892195;29;7136;-62
2022/07/01 11:01:51;;;;;;;;;;;;;;;28.48;41.63;94634.38;4886725;29;6991;-61
2022/07/01 11:04:17;;;;;;;;;;;;;;;28.46;41.80;94628.59;4890247;28;7072;-61
2022/07/01 11:06:45;;;;;;;;;;;;;;;28.43;41.61;94633.16;4943115;28;6978;-61
2022/07/01 11:09:18;;;;;;;;;;;;;;;28.43;42.44;94633.16;4945150;28;7202;-63
2022/07/01 11:11:52;;;;;;;;;;;;;;;28.42;41.76;94634.47;4943572;28;8652;-63
2022/07/01 11:14:23;;;;;;;;;;;;;;;28.43;42.21;94633.16;4948186;28;6994;-63
2022/07/01 11:16:50;;;;;;;;;;;;;;;28.43;42.20;94633.16;4994777;28;7250;-62
2022/07/01 11:19:19;;;;;;;;;;;;;;;28.38;42.36;94636.78;5012670;28;9031;-62
2022/07/01 11:21:53;;;;;;;;;;;;;;;28.38;42.32;94634.00;5016997;28;6996;-61
2022/07/01 11:24:21;;;;;;;;;;;;;;;28.40;42.29;94634.22;5021879;28;7004;-62
2022/07/01 11:26:55;;;;;;;;;;;;;;;28.41;42.45;94632.94;5017917;28;9420;-63
2022/07/01 11:29:27;;;;;;;;;;;;;;;28.44;42.58;94631.91;5015984;28;7248;-64
2022/07/01 11:31:57;;;;;;;;;;;;;;;28.41;42.13;94632.94;5027688;28;8790;-62
2022/07/01 11:34:36;;;;;;;;;;;;;;;28.41;42.55;94632.94;5010534;28;9142;-62
2022/07/01 11:40:11;;;;;;;;;;;;;;;28.36;43.18;94634.50;5011230;28;9004;-63
2022/07/01 11:42:41;;;;;;;;;;;;;;;28.40;42.79;94639.75;5024879;28;7309;-63
2022/07/01 11:45:27;;;;;;;;;;;;;;;28.40;42.36;94639.75;5023789;28;7506;-63
2022/07/01 11:48:12;;;;;;;;;;;;;;;28.42;42.81;94644.78;5011869;28;7197;-62
2022/07/01 11:50:52;;;;;;;;;;;;;;;28.41;42.90;94638.47;5019984;28;9286;-62
2022/07/01 11:53:24;;;;;;;;;;;;;;;28.42;42.84;94639.22;5022324;28;7254;-63
2022/07/01 11:55:53;;;;;;;;;;;;;;;28.45;42.83;94641.69;5018084;28;9045;-62
2022/07/01 11:58:21;;;;;;;;;;;;;;;28.45;42.73;94644.47;5031001;28;8814;-62
2022/07/01 12:00:47;;;;;;;;;;;;;;;28.46;42.62;94643.19;5025365;28;7145;-62
2022/07/01 12:03:14;;;;;;;;;;;;;;;28.47;42.58;94639.16;5017614;28;7265;-62
2022/07/01 12:05:40;;;;;;;;;;;;;;;28.48;42.46;94646.19;5024947;28;7484;-62
2022/07/01 12:08:16;;;;;;;;;;;;;;;28.49;42.54;94642.16;5021292;28;7268;-62
2022/07/01 12:10:45;;;;;;;;;;;;;;;28.48;42.99;94646.19;5023862;28;9094;-62
2022/07/01 12:13:24;;;;;;;;;;;;;;;28.49;42.62;94641.41;5021391;28;7204;-62
2022/07/01 12:16:07;;;;;;;;;;;;;;;28.53;42.42;94648.13;5018262;28;6985;-62
2022/07/01 12:18:35;;;;;;;;;;;;;;;28.55;42.37;94651.13;5017236;28;7464;-62
2022/07/01 12:21:01;;;;;;;;;;;;;;;28.58;42.51;94641.06;5009751;28;8619;-62
2022/07/01 12:23:30;;;;;;;;;;;;;;;28.56;42.60;94644.31;5034950;28;7276;-62
2022/07/01 12:25:58;;;;;;;;;;;;;;;28.56;42.61;94647.06;5017357;28;8121;-61
2022/07/01 12:28:40;;;;;;;;;;;;;;;28.55;42.29;94647.59;5027564;28;7276;-61
2022/07/01 12:31:09;;;;;;;;;;;;;;;28.54;42.57;94655.16;5017404;28;7092;-61
2022/07/01 12:33:39;;;;;;;;;;;;;;;28.55;42.38;94653.91;5016334;28;7191;-61
2022/07/01 12:36:08;;;;;;;;;;;;;;;28.55;42.69;94645.59;5027120;28;8855;-61
2022/07/01 12:38:38;;;;;;;;;;;;;;;28.53;42.44;94650.16;5017508;28;7409;-62
2022/07/01 12:41:38;;;;;;;;;;;;;;;28.50;42.44;94645.66;5024778;28;7083;-62
2022/07/01 12:44:24;;;;;;;;;;;;;;;28.48;42.78;94645.44;5017006;28;6934;-62
2022/07/01 12:46:51;;;;;;;;;;;;;;;28.48;41.98;94650.97;5019067;28;8203;-62
2022/07/01 12:49:22;;;;;;;;;;;;;;;28.45;42.24;94650.00;5021371;28;9035;-62
2022/07/01 12:51:49;;;;;;;;;;;;;;;28.43;42.20;94649.78;5016928;28;9464;-63
2022/07/01 12:54:44;;;;;;;;;;;;;;;28.42;42.41;94656.59;5012195;28;7298;-62
2022/07/01 12:57:10;;;;;;;;;;;;;;;28.41;42.48;94654.31;4995390;28;9077;-62
2022/07/01 12:59:39;;;;;;;;;;;;;;;28.43;42.54;94658.06;4999252;28;7324;-62
2022/07/01 13:02:04;;;;;;;;;;;;;;;28.42;42.57;94653.06;4985785;28;7427;-62
2022/07/01 13:04:32;;;;;;;;;;;;;;;28.40;42.77;94664.66;4969320;28;7293;-62
2022/07/01 13:07:10;;;;;;;;;;;;;;;28.40;42.46;94667.44;4996366;28;7226;-62
2022/07/01 13:09:46;;;;;;;;;;;;;;;28.40;42.56;94666.69;4982180;28;7276;-61
2022/07/01 13:12:24;;;;;;;;;;;;;;;28.38;42.53;94673.47;4978557;28;7155;-63
2022/07/01 13:14:52;;;;;;;;;;;;;;;28.38;42.60;94673.47;5004590;28;7064;-61
2022/07/01 13:17:21;;;;;;;;;;;;;;;28.36;42.38;94670.47;5005166;28;7118;-62
2022/07/01 13:19:51;;;;;;;;;;;;;;;28.40;42.82;94670.19;5003507;28;9414;-62
2022/07/01 13:22:28;;;;;;;;;;;;;;;28.41;42.92;94666.16;4985329;28;7236;-63
2022/07/01 13:24:57;;;;;;;;;;;;;;;28.43;42.33;94671.91;4984867;28;6997;-62
2022/07/01 13:27:53;;;;;;;;;;;;;;;28.42;42.57;94669.66;5005221;28;6991;-62
2022/07/01 13:30:20;;;;;;;;;;;;;;;28.45;42.38;94663.81;4969830;28;8929;-62
2022/07/01 13:32:54;;;;;;;;;;;;;;;28.46;42.18;94657.03;4977924;28;9053;-62
2022/07/01 13:35:29;;;;;;;;;;;;;;;28.47;42.29;94663.31;4987338;28;7416;-62
2022/07/01 13:37:55;;;;;;;;;;;;;;;28.48;42.28;94667.56;4982047;28;7297;-62